Time;durP1;ratioP1;P1;durP2;ratioP2;P2;SDS_P1;SDS_P2;PMS_P1;PMS_P2;Temp;Humidity;BMP_temperature;BMP_pressure;BME280_temperature;BME280_humidity;BME280_pressure;Samples;Min_cycle;Max_cycle;Signal;HPM_P1;HPM_P2
2023/08/21 00:01:36;;;;;;;4.47;1.95;;;15.40;99.90;;;;;;5052200;28;20036;-89
2023/08/21 00:04:02;;;;;;;9.30;2.00;;;15.40;99.90;;;;;;5051889;28;20029;-89
2023/08/21 00:06:27;;;;;;;7.15;2.45;;;15.40;99.90;;;;;;5052037;28;20021;-89
2023/08/21 00:08:53;;;;;;;13.30;2.35;;;15.30;99.90;;;;;;5051504;28;20079;-89
2023/08/21 00:11:19;;;;;;;10.70;2.17;;;15.30;99.90;;;;;;5051640;28;20382;-89
2023/08/21 00:13:47;;;;;;;6.22;2.20;;;15.30;99.90;;;;;;5051567;28;20087;-89
2023/08/21 00:16:13;;;;;;;9.23;2.50;;;15.20;99.90;;;;;;5054585;28;20029;-89
2023/08/21 00:18:39;;;;;;;5.32;1.85;;;15.20;99.90;;;;;;5056061;28;20021;-89
2023/08/21 00:21:04;;;;;;;7.60;1.95;;;15.10;99.90;;;;;;5056005;28;20045;-88
2023/08/21 00:23:31;;;;;;;6.20;1.90;;;15.00;99.90;;;;;;5055856;28;20044;-90
2023/08/21 00:25:56;;;;;;;7.00;2.10;;;14.80;99.90;;;;;;5053280;28;20021;-88
2023/08/21 00:28:22;;;;;;;6.63;2.17;;;14.60;99.90;;;;;;5055848;28;20112;-90
2023/08/21 00:30:48;;;;;;;9.10;2.10;;;14.60;99.90;;;;;;5055902;28;20032;-89
2023/08/21 00:33:13;;;;;;;7.85;2.50;;;14.50;99.90;;;;;;5055776;28;20035;-90
2023/08/21 00:35:39;;;;;;;10.98;2.47;;;14.40;99.90;;;;;;5055751;28;20025;-90
2023/08/21 00:38:05;;;;;;;9.88;2.38;;;14.40;99.90;;;;;;5055725;28;20021;-90
2023/08/21 00:40:31;;;;;;;13.07;2.25;;;14.30;99.90;;;;;;5055849;28;20489;-90
2023/08/21 00:42:57;;;;;;;11.90;2.22;;;14.30;99.90;;;;;;5056499;28;20139;-90
2023/08/21 00:45:22;;;;;;;12.60;2.70;;;14.20;99.90;;;;;;5058186;28;20061;-89
2023/08/21 00:47:48;;;;;;;13.35;3.50;;;14.20;99.90;;;;;;5061303;28;20032;-90
2023/08/21 00:50:15;;;;;;;11.27;2.33;;;14.30;99.90;;;;;;5062834;28;20024;-89
2023/08/21 00:52:45;;;;;;;10.63;2.10;;;14.30;99.90;;;;;;5064539;28;20024;-90
2023/08/21 00:55:11;;;;;;;7.77;2.07;;;14.30;99.90;;;;;;5060954;28;20163;-90
2023/08/21 00:57:38;;;;;;;3.55;2.00;;;14.30;99.90;;;;;;5055906;28;20033;-90
2023/08/21 01:00:05;;;;;;;12.63;3.17;;;14.30;99.90;;;;;;5055581;28;20044;-89
2023/08/21 01:02:31;;;;;;;10.98;2.60;;;14.30;99.90;;;;;;5055720;28;20025;-90
2023/08/21 01:04:56;;;;;;;9.95;2.30;;;14.30;99.90;;;;;;5055625;28;20017;-90
2023/08/21 01:07:22;;;;;;;9.57;2.40;;;14.30;99.90;;;;;;5055725;28;20068;-90
2023/08/21 01:09:54;;;;;;;8.90;2.38;;;14.20;99.90;;;;;;5056739;28;20046;-88
2023/08/21 01:12:32;;;;;;;10.05;2.47;;;14.20;99.90;;;;;;5052931;28;20040;-91
2023/08/21 01:15:07;;;;;;;8.52;2.55;;;14.30;99.90;;;;;;5052585;28;20056;-87
2023/08/21 01:17:36;;;;;;;14.68;2.42;;;14.30;99.90;;;;;;5054921;28;20163;-89
2023/08/21 01:20:02;;;;;;;6.78;2.15;;;14.30;99.90;;;;;;5055159;28;20489;-89
2023/08/21 01:22:36;;;;;;;11.13;2.80;;;14.40;99.90;;;;;;5055268;28;20033;-89
2023/08/21 01:25:02;;;;;;;11.10;2.45;;;14.50;99.90;;;;;;5052909;28;20029;-90
2023/08/21 01:27:28;;;;;;;10.05;2.45;;;14.50;99.90;;;;;;5053472;28;20035;-90
2023/08/21 01:29:54;;;;;;;10.15;2.20;;;14.50;99.90;;;;;;5054508;28;20029;-89
2023/08/21 01:32:41;;;;;;;9.73;2.25;;;14.50;99.90;;;;;;5054504;28;20017;-90
2023/08/21 01:35:09;;;;;;;13.15;3.67;;;14.60;99.90;;;;;;5053254;28;20031;-90
2023/08/21 01:37:35;;;;;;;14.45;2.50;;;14.60;99.90;;;;;;5054737;28;20025;-90
2023/08/21 01:40:01;;;;;;;7.20;2.00;;;14.70;99.90;;;;;;5054554;28;20031;-90
2023/08/21 01:42:26;;;;;;;9.50;2.30;;;14.70;99.90;;;;;;5054555;28;20085;-91
2023/08/21 01:44:52;;;;;;;14.23;2.63;;;14.70;99.90;;;;;;5054300;28;20385;-91
2023/08/21 01:47:18;;;;;;;13.85;2.65;;;14.80;99.90;;;;;;5054319;28;20451;-91
2023/08/21 01:49:43;;;;;;;9.65;2.22;;;14.80;99.90;;;;;;5054789;28;20017;-91
2023/08/21 01:52:09;;;;;;;13.63;2.72;;;14.80;99.90;;;;;;5054528;28;20025;-90
2023/08/21 01:54:35;;;;;;;13.73;3.08;;;14.80;99.90;;;;;;5054895;28;20170;-90
2023/08/21 01:57:01;;;;;;;11.23;2.85;;;14.80;99.90;;;;;;5054527;28;20036;-90
2023/08/21 01:59:27;;;;;;;14.52;2.42;;;14.80;99.90;;;;;;5054494;28;20029;-91
2023/08/21 02:01:53;;;;;;;11.80;3.53;;;14.80;99.90;;;;;;5054023;28;20025;-90
2023/08/21 02:04:19;;;;;;;12.02;2.78;;;14.70;99.90;;;;;;5054423;28;20025;-90
2023/08/21 02:06:45;;;;;;;12.35;3.65;;;14.70;99.90;;;;;;5054209;28;20021;-90
2023/08/21 02:09:10;;;;;;;15.77;3.15;;;14.70;99.90;;;;;;5054110;28;20032;-90
2023/08/21 02:11:36;;;;;;;15.15;2.65;;;14.70;99.90;;;;;;5053909;28;20021;-88
2023/08/21 02:14:02;;;;;;;6.90;2.33;;;14.70;99.90;;;;;;5053549;28;20067;-89
2023/08/21 02:16:28;;;;;;;9.07;2.10;;;14.70;99.90;;;;;;5053911;28;20104;-89
2023/08/21 02:18:54;;;;;;;16.17;3.28;;;14.70;99.90;;;;;;5053552;28;20052;-89
2023/08/21 02:21:20;;;;;;;9.05;2.38;;;14.60;99.90;;;;;;5053491;28;20482;-88
2023/08/21 02:23:46;;;;;;;7.07;2.58;;;14.50;99.90;;;;;;5053702;28;20013;-88
2023/08/21 02:26:11;;;;;;;7.10;2.40;;;14.40;99.90;;;;;;5053905;28;20024;-90
2023/08/21 02:28:38;;;;;;;11.02;2.05;;;14.30;99.90;;;;;;5053073;28;20064;-90
2023/08/21 02:31:04;;;;;;;5.97;2.33;;;14.30;99.90;;;;;;5052989;28;20116;-88
2023/08/21 02:33:31;;;;;;;8.40;2.22;;;14.30;99.90;;;;;;5053308;28;20155;-89
2023/08/21 02:35:56;;;;;;;6.13;2.05;;;14.30;99.90;;;;;;5053206;28;20028;-91
2023/08/21 02:38:22;;;;;;;8.57;2.80;;;14.30;99.90;;;;;;5053086;28;20021;-90
2023/08/21 02:40:47;;;;;;;7.72;2.40;;;14.20;99.90;;;;;;5053180;28;20051;-91
2023/08/21 02:43:13;;;;;;;8.90;2.47;;;14.20;99.90;;;;;;5053381;28;20025;-90
2023/08/21 02:45:39;;;;;;;8.43;2.17;;;14.20;99.90;;;;;;5052966;28;20033;-89
2023/08/21 02:48:05;;;;;;;9.88;3.15;;;14.20;99.90;;;;;;5052892;28;20508;-90
2023/08/21 02:50:30;;;;;;;12.27;3.25;;;14.10;99.90;;;;;;5053333;28;20021;-90
2023/08/21 02:52:56;;;;;;;9.38;2.38;;;14.00;99.90;;;;;;5053209;28;20028;-90
2023/08/21 02:55:22;;;;;;;7.90;2.42;;;14.00;99.90;;;;;;5053984;28;20438;-90
2023/08/21 02:57:47;;;;;;;11.85;2.70;;;13.90;99.90;;;;;;5053295;28;20021;-90
2023/08/21 03:00:13;;;;;;;10.88;2.30;;;13.80;99.90;;;;;;5052399;28;20108;-90
2023/08/21 03:02:42;;;;;;;5.65;2.33;;;13.80;99.90;;;;;;5053139;28;20025;-90
2023/08/21 03:05:09;;;;;;;9.30;2.40;;;13.90;99.90;;;;;;5053559;28;20021;-90
2023/08/21 03:07:34;;;;;;;11.15;2.47;;;13.80;99.90;;;;;;5052417;28;20044;-89
2023/08/21 03:10:01;;;;;;;8.93;2.78;;;13.70;99.90;;;;;;5052691;28;20021;-89
2023/08/21 03:12:27;;;;;;;8.02;2.20;;;13.70;99.90;;;;;;5052427;28;20017;-89
2023/08/21 03:14:53;;;;;;;9.07;2.83;;;13.60;99.90;;;;;;5052324;28;20028;-90
2023/08/21 03:17:19;;;;;;;10.13;2.50;;;13.70;99.90;;;;;;5052377;28;20025;-89
2023/08/21 03:19:44;;;;;;;5.07;2.75;;;13.60;99.90;;;;;;5052727;28;20119;-89
2023/08/21 03:22:10;;;;;;;10.95;3.25;;;13.60;99.90;;;;;;5052439;28;20024;-89
2023/08/21 03:24:36;;;;;;;12.57;2.40;;;13.50;99.90;;;;;;5052235;28;20024;-91
2023/08/21 03:27:02;;;;;;;12.60;2.58;;;13.50;99.90;;;;;;5052386;28;20104;-90
2023/08/21 03:29:27;;;;;;;7.68;2.45;;;13.40;99.90;;;;;;5053601;28;20023;-90
2023/08/21 03:31:54;;;;;;;8.20;2.45;;;13.40;99.90;;;;;;5052378;28;20013;-91
2023/08/21 03:34:20;;;;;;;9.35;2.67;;;13.40;99.90;;;;;;5051998;28;20505;-90
2023/08/21 03:36:45;;;;;;;15.07;4.70;;;13.40;99.90;;;;;;5052207;28;20013;-90
2023/08/21 03:39:11;;;;;;;8.60;2.15;;;13.30;99.90;;;;;;5052379;28;20435;-89
2023/08/21 03:41:37;;;;;;;9.77;2.33;;;13.30;99.90;;;;;;5052028;28;20021;-90
2023/08/21 03:44:02;;;;;;;6.72;2.60;;;13.30;99.90;;;;;;5052353;28;20079;-89
2023/08/21 03:46:28;;;;;;;14.95;3.60;;;13.20;99.90;;;;;;5051914;28;20068;-90
2023/08/21 03:48:54;;;;;;;11.20;2.50;;;13.20;99.90;;;;;;5051899;28;20047;-89
2023/08/21 03:51:19;;;;;;;10.93;1.80;;;13.20;99.90;;;;;;5052082;28;20052;-90
2023/08/21 03:53:45;;;;;;;6.95;1.85;;;13.10;99.90;;;;;;5054014;28;20017;-89
2023/08/21 03:56:11;;;;;;;13.32;2.40;;;13.10;99.90;;;;;;5054384;28;20018;-89
2023/08/21 03:58:36;;;;;;;10.70;2.30;;;13.10;99.90;;;;;;5054105;28;20017;-90
2023/08/21 04:01:02;;;;;;;6.80;2.33;;;13.10;99.90;;;;;;5052588;28;20041;-89
2023/08/21 04:03:27;;;;;;;10.30;2.47;;;13.00;99.90;;;;;;5052612;28;20025;-90
2023/08/21 04:05:54;;;;;;;7.40;2.47;;;13.00;99.90;;;;;;5052132;28;20040;-90
2023/08/21 04:08:20;;;;;;;11.95;2.63;;;12.90;99.90;;;;;;5051636;28;20021;-89
2023/08/21 04:10:45;;;;;;;9.45;2.60;;;12.90;99.90;;;;;;5051716;28;20017;-90
2023/08/21 04:13:11;;;;;;;11.05;2.30;;;12.80;99.90;;;;;;5052062;28;20028;-90
2023/08/21 04:15:37;;;;;;;10.20;2.60;;;12.80;99.90;;;;;;5051959;28;20478;-89
2023/08/21 04:18:03;;;;;;;7.22;2.13;;;12.80;99.90;;;;;;5051597;28;20021;-89
2023/08/21 04:20:29;;;;;;;7.70;2.40;;;12.80;99.90;;;;;;5051613;28;20115;-90
2023/08/21 04:22:55;;;;;;;8.25;2.20;;;12.70;99.90;;;;;;5051536;28;20116;-90
2023/08/21 04:25:20;;;;;;;8.45;2.17;;;12.70;99.90;;;;;;5051681;28;20017;-90
2023/08/21 04:27:46;;;;;;;7.93;2.22;;;12.60;99.90;;;;;;5051600;28;20036;-90
2023/08/21 04:30:12;;;;;;;6.15;2.30;;;12.60;99.90;;;;;;5051861;28;20017;-90
2023/08/21 04:32:38;;;;;;;11.65;2.20;;;12.60;99.90;;;;;;5054066;28;20043;-89
2023/08/21 04:35:05;;;;;;;7.55;2.05;;;12.50;99.90;;;;;;5051880;28;20406;-89
2023/08/21 04:37:31;;;;;;;16.25;2.40;;;12.50;99.90;;;;;;5052710;28;20021;-89
2023/08/21 04:39:57;;;;;;;6.38;2.20;;;12.50;99.90;;;;;;5051828;28;20488;-90
2023/08/21 04:42:23;;;;;;;6.72;2.53;;;12.50;99.90;;;;;;5051522;28;20018;-90
2023/08/21 04:44:48;;;;;;;6.35;2.40;;;12.50;99.90;;;;;;5051351;28;20048;-89
2023/08/21 04:47:27;;;;;;;9.52;2.08;;;12.50;99.90;;;;;;5051163;28;20056;-90
2023/08/21 04:49:54;;;;;;;7.07;2.30;;;12.40;99.90;;;;;;5051655;28;20564;-90
2023/08/21 04:52:20;;;;;;;10.15;2.40;;;12.40;99.90;;;;;;5051442;28;20087;-90
2023/08/21 04:54:47;;;;;;;10.57;2.63;;;12.40;99.90;;;;;;5051900;28;20040;-89
2023/08/21 04:57:13;;;;;;;16.17;2.53;;;12.30;99.90;;;;;;5052434;28;20021;-89
2023/08/21 04:59:39;;;;;;;12.27;2.45;;;12.30;99.90;;;;;;5053297;28;20021;-90
2023/08/21 05:02:05;;;;;;;11.07;2.50;;;12.30;99.90;;;;;;5054142;28;20021;-89
2023/08/21 05:04:30;;;;;;;8.77;2.20;;;12.30;99.90;;;;;;5056210;28;20020;-89
2023/08/21 05:06:56;;;;;;;15.80;2.20;;;12.30;99.90;;;;;;5055065;28;20382;-89
2023/08/21 05:09:22;;;;;;;10.82;3.08;;;12.30;99.90;;;;;;5056846;28;20466;-90
2023/08/21 05:11:47;;;;;;;6.68;2.33;;;12.20;99.90;;;;;;5055017;28;20029;-90
2023/08/21 05:14:13;;;;;;;7.45;2.28;;;12.20;99.90;;;;;;5055213;28;20040;-91
2023/08/21 05:16:38;;;;;;;8.10;2.33;;;12.20;99.90;;;;;;5055033;28;20071;-90
2023/08/21 05:19:04;;;;;;;9.30;2.72;;;12.10;99.90;;;;;;5054911;28;20478;-91
2023/08/21 05:21:30;;;;;;;11.63;3.63;;;12.10;99.90;;;;;;5054598;28;20025;-91
2023/08/21 05:23:55;;;;;;;6.75;2.47;;;12.10;99.90;;;;;;5054553;28;20021;-91
2023/08/21 05:26:21;;;;;;;12.18;2.80;;;12.10;99.90;;;;;;5054837;28;20024;-91
2023/08/21 05:28:47;;;;;;;7.00;2.63;;;12.10;99.90;;;;;;5054600;28;20033;-91
2023/08/21 05:31:12;;;;;;;12.20;2.60;;;12.10;99.90;;;;;;5052551;28;20032;-90
2023/08/21 05:33:38;;;;;;;7.65;2.50;;;12.10;99.90;;;;;;5053923;28;20432;-91
2023/08/21 05:36:04;;;;;;;12.30;3.03;;;12.10;99.90;;;;;;5054914;28;20029;-91
2023/08/21 05:38:31;;;;;;;8.30;2.60;;;12.10;99.90;;;;;;5054242;28;20104;-91
2023/08/21 05:40:58;;;;;;;12.90;3.03;;;12.10;99.90;;;;;;5055276;28;20029;-90
2023/08/21 05:43:23;;;;;;;12.25;2.80;;;12.10;99.90;;;;;;5054625;28;20025;-91
2023/08/21 05:45:49;;;;;;;7.63;2.40;;;12.10;99.90;;;;;;5054376;28;20095;-90
2023/08/21 05:48:16;;;;;;;9.65;2.90;;;12.10;99.90;;;;;;5053976;28;20029;-90
2023/08/21 05:50:42;;;;;;;10.90;3.03;;;12.10;99.90;;;;;;5055558;28;20536;-90
2023/08/21 05:53:07;;;;;;;8.82;3.13;;;12.10;99.90;;;;;;5054443;28;20029;-90
2023/08/21 05:55:33;;;;;;;7.18;2.50;;;12.10;99.90;;;;;;5054175;28;20029;-89
2023/08/21 05:57:59;;;;;;;12.20;2.53;;;12.10;99.90;;;;;;5055719;28;20021;-90
2023/08/21 06:00:24;;;;;;;9.45;2.35;;;12.10;99.90;;;;;;5054304;28;20032;-90
2023/08/21 06:02:50;;;;;;;8.07;2.47;;;12.10;99.90;;;;;;5054012;28;20025;-91
2023/08/21 06:05:16;;;;;;;6.47;2.65;;;12.10;99.90;;;;;;5053939;28;20033;-90
2023/08/21 06:07:42;;;;;;;9.10;2.60;;;12.10;99.90;;;;;;5053762;28;20058;-90
2023/08/21 06:10:11;;;;;;;9.30;2.60;;;12.10;99.90;;;;;;5056389;28;20171;-91
2023/08/21 06:12:37;;;;;;;8.93;2.42;;;12.20;99.90;;;;;;5053314;28;20033;-90
2023/08/21 06:15:03;;;;;;;11.23;2.70;;;12.10;99.90;;;;;;5053894;28;20032;-90
2023/08/21 06:17:29;;;;;;;10.23;2.83;;;12.10;99.90;;;;;;5053853;28;20045;-89
2023/08/21 06:19:55;;;;;;;8.27;2.33;;;12.10;99.90;;;;;;5053575;28;20600;-90
2023/08/21 06:22:21;;;;;;;9.88;3.35;;;12.10;99.90;;;;;;5056096;28;20017;-91
2023/08/21 06:24:46;;;;;;;9.15;2.65;;;12.10;99.90;;;;;;5054153;28;20036;-90
2023/08/21 06:27:12;;;;;;;10.68;3.65;;;12.20;99.90;;;;;;5049834;28;20428;-91
2023/08/21 06:29:40;;;;;;;10.35;2.53;;;12.20;99.90;;;;;;5051050;28;20025;-92
2023/08/21 06:32:05;;;;;;;10.32;2.55;;;12.30;99.90;;;;;;5052251;28;20036;-91
2023/08/21 06:34:32;;;;;;;10.68;2.50;;;12.30;99.90;;;;;;5053552;28;20017;-92
2023/08/21 06:36:57;;;;;;;8.38;2.67;;;12.40;99.90;;;;;;5053509;28;20021;-91
2023/08/21 06:39:23;;;;;;;15.88;3.20;;;12.40;99.90;;;;;;5053058;28;20044;-91
2023/08/21 06:41:49;;;;;;;10.10;2.45;;;12.50;99.90;;;;;;5050820;28;20020;-91
2023/08/21 06:44:14;;;;;;;9.50;2.65;;;12.60;99.90;;;;;;5046838;28;20025;-90
2023/08/21 06:46:40;;;;;;;8.30;2.67;;;12.70;99.90;;;;;;5051816;28;20041;-91
2023/08/21 06:49:05;;;;;;;10.00;2.60;;;12.70;99.90;;;;;;5048106;28;20043;-91
2023/08/21 06:51:31;;;;;;;9.30;2.53;;;12.80;99.90;;;;;;5050154;28;20021;-90
2023/08/21 06:53:57;;;;;;;13.73;2.45;;;12.90;99.90;;;;;;5052107;28;20029;-90
2023/08/21 06:56:23;;;;;;;14.00;2.40;;;12.90;99.90;;;;;;5052231;28;20378;-91
2023/08/21 06:58:48;;;;;;;11.55;2.22;;;13.00;99.90;;;;;;5041573;28;20030;-91
2023/08/21 07:01:14;;;;;;;14.85;2.55;;;13.10;99.90;;;;;;5043509;28;20572;-90
2023/08/21 07:03:40;;;;;;;14.32;2.40;;;13.20;99.90;;;;;;5066595;28;20029;-91
2023/08/21 07:06:05;;;;;;;8.68;2.55;;;13.30;99.90;;;;;;5065263;28;20025;-91
2023/08/21 07:08:31;;;;;;;6.15;1.90;;;13.30;99.90;;;;;;5063224;28;20060;-92
2023/08/21 07:10:57;;;;;;;15.15;2.63;;;13.40;99.90;;;;;;5060288;28;20036;-95
2023/08/21 07:13:22;;;;;;;10.60;2.03;;;13.50;99.90;;;;;;5052073;28;20033;-93
2023/08/21 07:15:48;;;;;;;9.90;2.70;;;13.60;99.90;;;;;;5057774;28;20033;-91
2023/08/21 07:18:14;;;;;;;9.95;2.97;;;13.70;99.90;;;;;;5052207;28;20223;-91
2023/08/21 07:20:40;;;;;;;7.95;2.90;;;13.90;99.90;;;;;;5066790;28;20416;-93
2023/08/21 07:23:16;;;;;;;10.60;3.25;;;14.10;99.90;;;;;;5064691;28;20024;-91
2023/08/21 07:25:42;;;;;;;9.82;2.72;;;14.20;99.90;;;;;;5058512;28;20026;-91
2023/08/21 07:28:09;;;;;;;6.07;2.72;;;14.50;99.90;;;;;;5044262;28;20453;-92
2023/08/21 07:30:38;;;;;;;13.82;2.83;;;14.70;99.90;;;;;;5062103;28;20111;-92
2023/08/21 07:33:05;;;;;;;10.20;2.55;;;14.90;99.90;;;;;;5064013;28;20108;-92
2023/08/21 07:35:30;;;;;;;10.93;2.20;;;15.00;99.90;;;;;;5062744;28;20080;-94
2023/08/21 07:37:56;;;;;;;9.32;2.40;;;15.20;99.90;;;;;;5066632;28;20445;-92
2023/08/21 07:40:22;;;;;;;5.85;1.90;;;15.40;99.90;;;;;;5071809;28;20048;-93
2023/08/21 07:42:47;;;;;;;9.35;2.13;;;15.50;99.90;;;;;;5064017;28;20061;-92
2023/08/21 07:45:13;;;;;;;12.95;2.72;;;15.70;99.90;;;;;;5064098;28;20021;-93
2023/08/21 07:47:39;;;;;;;13.45;1.90;;;15.80;99.90;;;;;;5056244;28;20044;-93
2023/08/21 07:50:06;;;;;;;6.95;1.88;;;15.90;99.90;;;;;;5052523;28;20053;-92
2023/08/21 07:52:32;;;;;;;6.75;1.83;;;16.10;99.90;;;;;;5053312;28;20028;-92
2023/08/21 07:55:00;;;;;;;4.47;1.17;;;16.20;99.90;;;;;;5056945;28;20033;-92
2023/08/21 07:57:29;;;;;;;6.25;1.50;;;16.40;99.90;;;;;;5073280;28;20017;-90
2023/08/21 07:59:55;;;;;;;5.95;1.73;;;16.40;99.90;;;;;;5084804;28;20028;-90
2023/08/21 08:02:20;;;;;;;9.25;2.05;;;16.50;99.90;;;;;;5072118;28;20029;-90
2023/08/21 08:04:46;;;;;;;4.38;1.65;;;16.70;99.90;;;;;;5072349;28;20024;-89
2023/08/21 08:07:12;;;;;;;6.18;1.75;;;16.80;99.90;;;;;;5074093;28;20043;-90
2023/08/21 08:09:39;;;;;;;7.05;1.95;;;16.80;99.90;;;;;;5072733;28;20028;-91
2023/08/21 08:12:25;;;;;;;12.65;2.25;;;17.00;99.90;;;;;;5059171;28;20375;-93
2023/08/21 08:15:00;;;;;;;5.28;1.85;;;17.10;99.90;;;;;;5077312;28;20494;-93
2023/08/21 08:17:25;;;;;;;9.57;1.95;;;17.20;99.90;;;;;;5061766;28;20025;-93
2023/08/21 08:19:51;;;;;;;6.30;1.63;;;17.30;99.90;;;;;;5057427;28;20469;-92
2023/08/21 08:22:17;;;;;;;9.70;1.67;;;17.40;99.90;;;;;;5056110;28;20127;-90
2023/08/21 08:24:42;;;;;;;10.07;1.75;;;17.50;99.90;;;;;;5054130;28;20025;-92
2023/08/21 08:27:08;;;;;;;9.52;2.00;;;17.50;99.90;;;;;;5053822;28;20525;-91
2023/08/21 08:29:33;;;;;;;10.38;1.65;;;17.60;99.90;;;;;;5053613;28;20489;-91
2023/08/21 08:31:59;;;;;;;7.85;1.55;;;17.60;99.90;;;;;;5055192;28;20021;-91
2023/08/21 08:34:25;;;;;;;5.82;1.58;;;17.60;99.90;;;;;;5053909;28;20055;-90
2023/08/21 08:36:50;;;;;;;5.95;1.50;;;17.70;99.90;;;;;;5055297;28;20028;-91
2023/08/21 08:39:16;;;;;;;11.50;1.80;;;17.70;99.90;;;;;;5057349;28;20021;-90
2023/08/21 08:41:57;;;;;;;8.07;1.50;;;17.80;99.90;;;;;;5056113;28;20504;-90
2023/08/21 08:44:25;;;;;;;7.15;1.17;;;17.90;99.90;;;;;;5056680;28;20024;-90
2023/08/21 08:46:52;;;;;;;7.30;1.55;;;18.00;99.90;;;;;;5058190;28;20045;-90
2023/08/21 08:49:17;;;;;;;6.18;1.45;;;18.00;99.90;;;;;;5056433;28;20037;-90
2023/08/21 08:51:44;;;;;;;10.93;1.55;;;18.10;99.90;;;;;;5056252;28;20036;-91
2023/08/21 08:54:12;;;;;;;7.88;1.58;;;18.10;99.90;;;;;;5056293;28;20107;-90
2023/08/21 08:56:37;;;;;;;10.38;1.77;;;18.20;99.90;;;;;;5056745;28;20120;-90
2023/08/21 08:59:05;;;;;;;4.95;1.60;;;18.30;99.90;;;;;;5056313;28;20502;-90
2023/08/21 09:01:31;;;;;;;7.15;1.88;;;18.40;99.90;;;;;;5056402;28;20020;-90
2023/08/21 09:03:56;;;;;;;5.70;1.63;;;18.40;99.90;;;;;;5057363;28;20086;-91
2023/08/21 09:06:22;;;;;;;4.70;1.38;;;18.50;99.90;;;;;;5057947;28;20060;-90
2023/08/21 09:08:57;;;;;;;9.73;1.90;;;18.50;99.90;;;;;;5058541;28;20033;-92
2023/08/21 09:11:24;;;;;;;5.93;1.50;;;18.70;99.90;;;;;;5058194;28;20029;-92
2023/08/21 09:13:51;;;;;;;10.18;1.70;;;18.80;99.90;;;;;;5057075;28;20029;-92
2023/08/21 09:16:18;;;;;;;11.90;2.70;;;18.90;99.90;;;;;;5056728;28;20534;-92
2023/08/21 09:18:48;;;;;;;6.55;2.00;;;19.00;99.90;;;;;;5057464;28;20021;-92
2023/08/21 09:21:21;;;;;;;5.85;1.70;;;19.10;99.90;;;;;;5062056;28;20051;-92
2023/08/21 09:23:48;;;;;;;7.38;1.92;;;19.10;99.90;;;;;;5056268;28;20036;-91
2023/08/21 09:26:21;;;;;;;6.07;1.60;;;19.20;99.90;;;;;;5046581;28;20032;-93
2023/08/21 09:28:51;;;;;;;9.35;1.65;;;19.20;99.90;;;;;;5045424;28;20047;-91
2023/08/21 09:31:23;;;;;;;8.85;1.67;;;19.40;99.90;;;;;;5057199;28;20483;-92
2023/08/21 09:33:56;;;;;;;6.45;1.60;;;19.60;99.90;;;;;;5057264;28;20033;-93
2023/08/21 09:36:22;;;;;;;13.25;2.13;;;19.70;99.90;;;;;;5056213;28;20049;-92
2023/08/21 09:38:48;;;;;;;4.95;1.85;;;19.80;99.90;;;;;;5045278;28;20068;-91
2023/08/21 09:41:14;;;;;;;10.57;1.70;;;19.90;99.90;;;;;;5035655;28;20032;-92
2023/08/21 09:43:42;;;;;;;6.80;1.83;;;19.90;99.90;;;;;;5037804;28;20490;-92
2023/08/21 09:46:09;;;;;;;9.43;1.90;;;20.00;99.90;;;;;;5019970;28;20063;-91
2023/08/21 09:48:35;;;;;;;5.28;1.77;;;20.00;99.90;;;;;;5034989;28;20037;-92
2023/08/21 09:51:04;;;;;;;7.40;1.92;;;20.10;99.90;;;;;;5038748;28;20047;-91
2023/08/21 09:53:30;;;;;;;6.05;1.85;;;20.20;99.90;;;;;;5037092;28;20093;-92
2023/08/21 09:55:55;;;;;;;8.73;1.70;;;20.30;99.90;;;;;;5049331;28;20102;-92
2023/08/21 09:58:22;;;;;;;7.70;1.75;;;20.50;99.90;;;;;;5055238;28;20029;-92
2023/08/21 10:00:55;;;;;;;5.30;1.67;;;20.60;99.90;;;;;;5055331;28;20055;-91
2023/08/21 10:03:22;;;;;;;5.45;1.60;;;20.70;99.90;;;;;;5055430;28;20024;-93
2023/08/21 10:05:49;;;;;;;8.32;1.52;;;20.90;99.90;;;;;;5055733;28;20032;-91
2023/08/21 10:08:18;;;;;;;5.88;1.55;;;21.10;99.90;;;;;;5060928;28;20048;-91
2023/08/21 10:10:43;;;;;;;6.28;2.20;;;21.30;99.90;;;;;;5074254;28;20033;-90
2023/08/21 10:13:10;;;;;;;6.55;2.17;;;21.50;99.90;;;;;;5074522;28;20029;-92
2023/08/21 10:15:37;;;;;;;5.90;1.95;;;21.70;99.90;;;;;;5067140;28;20063;-91
2023/08/21 10:18:25;;;;;;;6.15;1.50;;;21.80;99.90;;;;;;5066180;28;20025;-90
2023/08/21 10:20:52;;;;;;;11.60;1.83;;;22.10;99.80;;;;;;5060853;28;20032;-92
2023/08/21 10:23:31;;;;;;;6.18;1.90;;;22.10;99.00;;;;;;5058742;28;20025;-93
2023/08/21 10:25:59;;;;;;;9.43;1.67;;;22.30;97.60;;;;;;5057362;28;20561;-91
2023/08/21 10:28:43;;;;;;;6.45;1.50;;;22.30;97.10;;;;;;5058392;28;20041;-92
2023/08/21 10:31:40;;;;;;;7.10;1.73;;;22.30;96.30;;;;;;5057719;28;20028;-93
2023/08/21 10:34:11;;;;;;;4.78;1.20;;;22.30;96.10;;;;;;5056867;28;20056;-92
2023/08/21 10:36:42;;;;;;;;;;;22.20;96.10;;;;;;5056273;28;20040;-93
2023/08/21 10:39:14;;;;;;;4.53;1.00;;;22.10;95.80;;;;;;5057245;28;19904;-91
2023/08/21 10:41:41;;;;;;;2.63;1.38;;;21.90;95.70;;;;;;5055523;28;20029;-91
2023/08/21 10:44:08;;;;;;;5.93;1.65;;;21.80;95.60;;;;;;5056330;28;20029;-92
2023/08/21 10:46:53;;;;;;;4.15;1.23;;;21.80;95.80;;;;;;5055000;28;20053;-90
2023/08/21 10:49:18;;;;;;;4.78;1.33;;;21.80;95.80;;;;;;5056676;28;20036;-91
2023/08/21 10:51:44;;;;;;;3.10;1.10;;;22.00;95.90;;;;;;5055864;28;20037;-92
2023/08/21 10:54:13;;;;;;;5.38;1.63;;;22.10;95.70;;;;;;5054821;28;20025;-92
2023/08/21 10:56:39;;;;;;;3.72;1.10;;;22.10;95.20;;;;;;5055137;28;20029;-90
2023/08/21 10:59:05;;;;;;;3.15;1.33;;;22.00;94.90;;;;;;5057244;28;20083;-90
2023/08/21 11:01:46;;;;;;;4.65;1.55;;;22.00;95.10;;;;;;5055917;28;20091;-90
2023/08/21 11:04:12;;;;;;;5.38;1.95;;;21.90;94.60;;;;;;5055115;28;20115;-91
2023/08/21 11:06:39;;;;;;;5.45;1.30;;;21.90;94.50;;;;;;5054415;28;20411;-89
2023/08/21 11:09:05;;;;;;;1.90;1.10;;;22.00;94.50;;;;;;5055272;28;20162;-90
2023/08/21 11:11:31;;;;;;;3.85;1.20;;;22.10;94.10;;;;;;5056371;28;20434;-91
2023/08/21 11:13:57;;;;;;;3.42;1.00;;;22.20;93.60;;;;;;5054277;28;20110;-90
2023/08/21 11:16:25;;;;;;;4.07;1.38;;;22.40;93.20;;;;;;5053974;28;20032;-91
2023/08/21 11:18:50;;;;;;;4.50;0.90;;;22.50;93.10;;;;;;5055475;28;20501;-91
2023/08/21 11:21:16;;;;;;;4.43;0.93;;;22.70;92.50;;;;;;5053944;28;20040;-91
2023/08/21 11:23:42;;;;;;;3.25;1.00;;;22.90;92.30;;;;;;5053446;28;20013;-91
2023/08/21 11:26:12;;;;;;;3.45;1.00;;;22.90;91.80;;;;;;5053956;28;20036;-91
2023/08/21 11:28:38;;;;;;;4.85;0.93;;;22.90;91.50;;;;;;5053509;28;20061;-91
2023/08/21 11:31:12;;;;;;;4.68;1.10;;;22.80;91.50;;;;;;5055144;28;20079;-92
2023/08/21 11:33:39;;;;;;;6.40;1.17;;;22.80;91.60;;;;;;5053606;28;20029;-89
2023/08/21 11:36:05;;;;;;;4.68;0.73;;;22.70;91.70;;;;;;5053664;28;20025;-88
2023/08/21 11:38:33;;;;;;;2.28;0.90;;;22.60;91.70;;;;;;5053300;28;20436;-89
2023/08/21 11:41:05;;;;;;;5.22;1.50;;;22.40;91.50;;;;;;5053083;28;20025;-89
2023/08/21 11:43:39;;;;;;;4.13;1.27;;;22.20;92.00;;;;;;5053686;28;20035;-90
2023/08/21 11:46:06;;;;;;;7.05;1.20;;;22.20;92.40;;;;;;5053150;28;20179;-90
2023/08/21 11:48:32;;;;;;;1.42;1.00;;;22.10;92.40;;;;;;5054237;28;20033;-91
2023/08/21 11:50:58;;;;;;;5.30;1.42;;;22.30;92.50;;;;;;5052975;28;20025;-90
2023/08/21 11:53:41;;;;;;;4.32;1.10;;;22.60;92.50;;;;;;5052246;28;20032;-89
2023/08/21 11:56:12;;;;;;;3.85;1.10;;;23.10;92.10;;;;;;5052395;28;20029;-89
2023/08/21 11:58:39;;;;;;;3.70;1.15;;;23.60;91.00;;;;;;5052519;28;20478;-90
2023/08/21 12:01:07;;;;;;;2.60;1.05;;;24.10;90.00;;;;;;5054283;28;20032;-89
2023/08/21 12:03:39;;;;;;;5.75;1.15;;;24.20;88.10;;;;;;5053378;28;20060;-91
2023/08/21 12:06:12;;;;;;;4.63;1.33;;;24.30;87.10;;;;;;5052446;28;20036;-91
2023/08/21 12:08:39;;;;;;;5.97;1.20;;;24.20;86.20;;;;;;5052408;28;20112;-92
2023/08/21 12:11:05;;;;;;;12.88;2.17;;;24.20;86.00;;;;;;5052065;28;20025;-93
2023/08/21 12:13:31;;;;;;;2.92;0.93;;;24.10;86.10;;;;;;5052258;28;20037;-91
2023/08/21 12:15:57;;;;;;;4.22;1.55;;;24.00;85.60;;;;;;5052978;28;20036;-90
2023/08/21 12:18:23;;;;;;;4.45;1.60;;;24.00;85.90;;;;;;5052466;28;20028;-89
2023/08/21 12:20:52;;;;;;;4.35;1.10;;;24.20;86.10;;;;;;5052345;28;20043;-91
2023/08/21 12:23:17;;;;;;;3.42;1.42;;;24.40;85.90;;;;;;5052323;28;20055;-89
2023/08/21 12:25:44;;;;;;;6.75;1.60;;;24.60;85.00;;;;;;5052354;28;20531;-91
2023/08/21 12:28:10;;;;;;;4.65;1.50;;;24.70;84.00;;;;;;5053999;28;20037;-89
2023/08/21 12:30:36;;;;;;;3.97;1.48;;;24.30;82.70;;;;;;5052275;28;20186;-89
2023/08/21 12:33:02;;;;;;;4.50;1.60;;;24.00;83.00;;;;;;5052461;28;20107;-91
2023/08/21 12:35:28;;;;;;;4.05;1.27;;;23.80;83.90;;;;;;5054059;28;20025;-90
2023/08/21 12:38:05;;;;;;;7.28;1.50;;;23.50;84.30;;;;;;5051833;28;20025;-89
2023/08/21 12:40:33;;;;;;;4.00;1.40;;;23.20;85.20;;;;;;5051662;28;20048;-91
2023/08/21 12:42:59;;;;;;;3.30;1.85;;;23.10;86.50;;;;;;5052435;28;20029;-90